sensor_id;sensor_type;location;lat;lon;timestamp;P1;durP1;ratioP1;P2;durP2;ratioP2
38111;SDS011;64011;56.312;44.048;2023-02-16T00:01:44;21.17;;;9.55;;
38111;SDS011;64011;56.312;44.048;2023-02-16T00:03:45;25.73;;;9.55;;
38111;SDS011;64011;56.312;44.048;2023-02-16T00:05:46;19.48;;;9.35;;
38111;SDS011;64011;56.312;44.048;2023-02-16T00:07:47;21.30;;;8.77;;
38111;SDS011;64011;56.312;44.048;2023-02-16T00:09:49;20.67;;;9.30;;
38111;SDS011;64011;56.312;44.048;2023-02-16T00:11:50;20.83;;;9.65;;
38111;SDS011;64011;56.312;44.048;2023-02-16T00:13:52;20.65;;;8.80;;
38111;SDS011;64011;56.312;44.048;2023-02-16T00:15:53;23.65;;;9.70;;
38111;SDS011;64011;56.312;44.048;2023-02-16T00:17:53;21.63;;;9.63;;
38111;SDS011;64011;56.312;44.048;2023-02-16T00:19:54;19.85;;;8.63;;
38111;SDS011;64011;56.312;44.048;2023-02-16T00:21:56;20.67;;;8.65;;
38111;SDS011;64011;56.312;44.048;2023-02-16T00:23:57;19.27;;;8.35;;
38111;SDS011;64011;56.312;44.048;2023-02-16T00:26:00;22.23;;;9.63;;
38111;SDS011;64011;56.312;44.048;2023-02-16T00:28:01;20.95;;;9.02;;
38111;SDS011;64011;56.312;44.048;2023-02-16T00:30:05;20.77;;;9.27;;
38111;SDS011;64011;56.312;44.048;2023-02-16T00:32:13;20.23;;;8.77;;
38111;SDS011;64011;56.312;44.048;2023-02-16T00:34:23;22.65;;;9.32;;
38111;SDS011;64011;56.312;44.048;2023-02-16T00:36:25;21.10;;;9.05;;
38111;SDS011;64011;56.312;44.048;2023-02-16T00:38:26;19.40;;;8.40;;
38111;SDS011;64011;56.312;44.048;2023-02-16T00:40:27;20.42;;;8.80;;
38111;SDS011;64011;56.312;44.048;2023-02-16T00:42:29;20.42;;;8.45;;
38111;SDS011;64011;56.312;44.048;2023-02-16T00:44:32;20.98;;;9.07;;
38111;SDS011;64011;56.312;44.048;2023-02-16T00:46:34;20.77;;;9.10;;
38111;SDS011;64011;56.312;44.048;2023-02-16T00:48:34;21.95;;;9.40;;
38111;SDS011;64011;56.312;44.048;2023-02-16T00:50:35;19.52;;;8.75;;
38111;SDS011;64011;56.312;44.048;2023-02-16T00:52:36;20.13;;;8.35;;
38111;SDS011;64011;56.312;44.048;2023-02-16T00:54:38;21.80;;;9.57;;
38111;SDS011;64011;56.312;44.048;2023-02-16T00:56:38;19.92;;;8.07;;
38111;SDS011;64011;56.312;44.048;2023-02-16T00:58:41;19.33;;;8.63;;
38111;SDS011;64011;56.312;44.048;2023-02-16T01:00:43;20.83;;;9.27;;
38111;SDS011;64011;56.312;44.048;2023-02-16T01:02:46;20.90;;;9.75;;
38111;SDS011;64011;56.312;44.048;2023-02-16T01:04:47;19.77;;;8.38;;
38111;SDS011;64011;56.312;44.048;2023-02-16T01:06:48;19.17;;;8.25;;
38111;SDS011;64011;56.312;44.048;2023-02-16T01:08:49;19.55;;;8.75;;
38111;SDS011;64011;56.312;44.048;2023-02-16T01:10:49;21.35;;;9.48;;
38111;SDS011;64011;56.312;44.048;2023-02-16T01:12:50;22.02;;;9.20;;
38111;SDS011;64011;56.312;44.048;2023-02-16T01:14:53;23.15;;;10.23;;
38111;SDS011;64011;56.312;44.048;2023-02-16T01:16:54;21.58;;;9.38;;
38111;SDS011;64011;56.312;44.048;2023-02-16T01:18:55;21.80;;;8.88;;
38111;SDS011;64011;56.312;44.048;2023-02-16T01:20:55;21.67;;;9.32;;
38111;SDS011;64011;56.312;44.048;2023-02-16T01:22:56;20.10;;;8.80;;
38111;SDS011;64011;56.312;44.048;2023-02-16T01:24:57;21.20;;;8.88;;
38111;SDS011;64011;56.312;44.048;2023-02-16T01:26:58;20.80;;;8.85;;
38111;SDS011;64011;56.312;44.048;2023-02-16T01:28:58;21.58;;;9.68;;
38111;SDS011;64011;56.312;44.048;2023-02-16T01:31:01;21.25;;;9.10;;
38111;SDS011;64011;56.312;44.048;2023-02-16T01:33:02;19.65;;;8.57;;
38111;SDS011;64011;56.312;44.048;2023-02-16T01:35:03;18.98;;;8.65;;
38111;SDS011;64011;56.312;44.048;2023-02-16T01:37:04;21.38;;;9.30;;
38111;SDS011;64011;56.312;44.048;2023-02-16T01:39:05;21.60;;;9.32;;
38111;SDS011;64011;56.312;44.048;2023-02-16T01:41:09;21.38;;;9.02;;
38111;SDS011;64011;56.312;44.048;2023-02-16T01:43:17;22.27;;;9.15;;
38111;SDS011;64011;56.312;44.048;2023-02-16T01:45:20;22.17;;;9.85;;
38111;SDS011;64011;56.312;44.048;2023-02-16T01:49:46;21.38;;;9.07;;
38111;SDS011;64011;56.312;44.048;2023-02-16T01:51:48;24.25;;;10.02;;
38111;SDS011;64011;56.312;44.048;2023-02-16T01:53:52;21.48;;;8.85;;
38111;SDS011;64011;56.312;44.048;2023-02-16T01:55:54;21.67;;;9.32;;
38111;SDS011;64011;56.312;44.048;2023-02-16T01:57:58;23.23;;;9.73;;
38111;SDS011;64011;56.312;44.048;2023-02-16T02:00:07;22.20;;;8.85;;
38111;SDS011;64011;56.312;44.048;2023-02-16T02:02:13;22.83;;;10.18;;
38111;SDS011;64011;56.312;44.048;2023-02-16T02:04:24;22.45;;;9.38;;
38111;SDS011;64011;56.312;44.048;2023-02-16T02:06:29;22.15;;;8.48;;
38111;SDS011;64011;56.312;44.048;2023-02-16T02:08:34;22.90;;;9.50;;
38111;SDS011;64011;56.312;44.048;2023-02-16T02:10:40;20.73;;;9.00;;
38111;SDS011;64011;56.312;44.048;2023-02-16T02:12:47;24.33;;;10.30;;
38111;SDS011;64011;56.312;44.048;2023-02-16T02:14:49;21.40;;;9.05;;
38111;SDS011;64011;56.312;44.048;2023-02-16T02:16:51;21.67;;;9.18;;
38111;SDS011;64011;56.312;44.048;2023-02-16T02:18:54;22.60;;;9.43;;
38111;SDS011;64011;56.312;44.048;2023-02-16T02:21:01;21.60;;;9.95;;
38111;SDS011;64011;56.312;44.048;2023-02-16T02:23:22;23.40;;;10.02;;
38111;SDS011;64011;56.312;44.048;2023-02-16T02:28:22;22.25;;;10.00;;
38111;SDS011;64011;56.312;44.048;2023-02-16T02:30:35;22.27;;;9.48;;
38111;SDS011;64011;56.312;44.048;2023-02-16T02:32:46;22.80;;;10.05;;
38111;SDS011;64011;56.312;44.048;2023-02-16T02:34:58;23.58;;;10.07;;
38111;SDS011;64011;56.312;44.048;2023-02-16T02:37:05;24.60;;;9.68;;
38111;SDS011;64011;56.312;44.048;2023-02-16T02:39:15;23.88;;;10.18;;
38111;SDS011;64011;56.312;44.048;2023-02-16T02:41:24;23.38;;;9.75;;
38111;SDS011;64011;56.312;44.048;2023-02-16T02:43:30;21.42;;;9.43;;
38111;SDS011;64011;56.312;44.048;2023-02-16T02:45:35;24.23;;;11.15;;
38111;SDS011;64011;56.312;44.048;2023-02-16T02:47:40;21.55;;;9.55;;
38111;SDS011;64011;56.312;44.048;2023-02-16T02:49:47;22.60;;;10.00;;
38111;SDS011;64011;56.312;44.048;2023-02-16T02:51:49;23.80;;;9.85;;
38111;SDS011;64011;56.312;44.048;2023-02-16T02:53:51;23.48;;;9.90;;
38111;SDS011;64011;56.312;44.048;2023-02-16T02:55:53;21.60;;;9.57;;
38111;SDS011;64011;56.312;44.048;2023-02-16T02:57:58;23.45;;;10.00;;
38111;SDS011;64011;56.312;44.048;2023-02-16T03:00:03;24.95;;;10.13;;
38111;SDS011;64011;56.312;44.048;2023-02-16T03:02:06;22.63;;;10.68;;
38111;SDS011;64011;56.312;44.048;2023-02-16T03:04:07;23.33;;;9.15;;
38111;SDS011;64011;56.312;44.048;2023-02-16T03:06:09;24.25;;;10.95;;
38111;SDS011;64011;56.312;44.048;2023-02-16T03:08:11;21.77;;;9.80;;
38111;SDS011;64011;56.312;44.048;2023-02-16T03:10:16;24.27;;;10.40;;
38111;SDS011;64011;56.312;44.048;2023-02-16T03:12:19;21.33;;;9.55;;
38111;SDS011;64011;56.312;44.048;2023-02-16T03:14:21;22.83;;;10.18;;
38111;SDS011;64011;56.312;44.048;2023-02-16T03:16:28;23.27;;;9.90;;
38111;SDS011;64011;56.312;44.048;2023-02-16T03:18:31;24.48;;;10.15;;
38111;SDS011;64011;56.312;44.048;2023-02-16T03:20:34;22.60;;;9.68;;
38111;SDS011;64011;56.312;44.048;2023-02-16T03:22:35;22.13;;;9.63;;
38111;SDS011;64011;56.312;44.048;2023-02-16T03:24:36;23.75;;;10.63;;
38111;SDS011;64011;56.312;44.048;2023-02-16T03:26:37;24.55;;;10.70;;
38111;SDS011;64011;56.312;44.048;2023-02-16T03:28:39;22.70;;;10.63;;
38111;SDS011;64011;56.312;44.048;2023-02-16T03:30:42;22.15;;;10.35;;
38111;SDS011;64011;56.312;44.048;2023-02-16T03:32:46;23.40;;;11.00;;
38111;SDS011;64011;56.312;44.048;2023-02-16T03:34:47;24.60;;;10.50;;
38111;SDS011;64011;56.312;44.048;2023-02-16T03:36:50;25.38;;;11.00;;
38111;SDS011;64011;56.312;44.048;2023-02-16T03:38:54;23.02;;;10.60;;
38111;SDS011;64011;56.312;44.048;2023-02-16T03:40:55;23.50;;;10.55;;
38111;SDS011;64011;56.312;44.048;2023-02-16T03:42:57;26.50;;;11.25;;
38111;SDS011;64011;56.312;44.048;2023-02-16T03:44:58;29.55;;;12.32;;
38111;SDS011;64011;56.312;44.048;2023-02-16T03:46:59;27.15;;;11.98;;
38111;SDS011;64011;56.312;44.048;2023-02-16T03:49:01;28.52;;;13.27;;
38111;SDS011;64011;56.312;44.048;2023-02-16T03:51:02;26.95;;;12.45;;
38111;SDS011;64011;56.312;44.048;2023-02-16T03:53:03;29.15;;;12.57;;
38111;SDS011;64011;56.312;44.048;2023-02-16T03:55:04;30.88;;;12.57;;
38111;SDS011;64011;56.312;44.048;2023-02-16T03:57:05;28.40;;;12.57;;
38111;SDS011;64011;56.312;44.048;2023-02-16T03:59:06;27.35;;;11.18;;
38111;SDS011;64011;56.312;44.048;2023-02-16T04:01:07;26.10;;;12.38;;
38111;SDS011;64011;56.312;44.048;2023-02-16T04:03:09;25.08;;;11.40;;
38111;SDS011;64011;56.312;44.048;2023-02-16T04:05:11;26.00;;;11.90;;
38111;SDS011;64011;56.312;44.048;2023-02-16T04:07:12;26.48;;;11.30;;
38111;SDS011;64011;56.312;44.048;2023-02-16T04:09:13;26.38;;;11.63;;
38111;SDS011;64011;56.312;44.048;2023-02-16T04:11:14;27.15;;;11.60;;
38111;SDS011;64011;56.312;44.048;2023-02-16T04:13:14;26.25;;;11.65;;
38111;SDS011;64011;56.312;44.048;2023-02-16T04:15:16;24.75;;;10.82;;
38111;SDS011;64011;56.312;44.048;2023-02-16T04:17:18;23.45;;;10.57;;
38111;SDS011;64011;56.312;44.048;2023-02-16T04:19:19;24.45;;;11.00;;
38111;SDS011;64011;56.312;44.048;2023-02-16T04:21:21;23.35;;;10.48;;
38111;SDS011;64011;56.312;44.048;2023-02-16T04:23:22;22.40;;;10.25;;
38111;SDS011;64011;56.312;44.048;2023-02-16T04:25:22;25.27;;;11.95;;
38111;SDS011;64011;56.312;44.048;2023-02-16T04:27:23;24.08;;;10.45;;
38111;SDS011;64011;56.312;44.048;2023-02-16T04:29:24;23.70;;;11.23;;
38111;SDS011;64011;56.312;44.048;2023-02-16T04:31:25;26.40;;;11.50;;
38111;SDS011;64011;56.312;44.048;2023-02-16T04:33:26;24.60;;;11.15;;
38111;SDS011;64011;56.312;44.048;2023-02-16T04:35:27;26.83;;;11.75;;
38111;SDS011;64011;56.312;44.048;2023-02-16T04:37:29;28.20;;;11.90;;
38111;SDS011;64011;56.312;44.048;2023-02-16T04:39:29;27.40;;;12.07;;
38111;SDS011;64011;56.312;44.048;2023-02-16T04:41:30;30.02;;;12.85;;
38111;SDS011;64011;56.312;44.048;2023-02-16T04:43:31;28.73;;;12.73;;
38111;SDS011;64011;56.312;44.048;2023-02-16T04:45:32;30.45;;;13.38;;
38111;SDS011;64011;56.312;44.048;2023-02-16T04:47:32;32.92;;;13.55;;
38111;SDS011;64011;56.312;44.048;2023-02-16T04:49:33;32.95;;;14.07;;
38111;SDS011;64011;56.312;44.048;2023-02-16T04:51:34;34.55;;;14.27;;
38111;SDS011;64011;56.312;44.048;2023-02-16T04:53:36;30.83;;;13.50;;
38111;SDS011;64011;56.312;44.048;2023-02-16T04:55:37;29.95;;;13.25;;
38111;SDS011;64011;56.312;44.048;2023-02-16T04:57:38;27.23;;;12.00;;
38111;SDS011;64011;56.312;44.048;2023-02-16T04:59:39;27.13;;;11.93;;
38111;SDS011;64011;56.312;44.048;2023-02-16T05:01:40;28.92;;;13.60;;
38111;SDS011;64011;56.312;44.048;2023-02-16T05:03:41;28.80;;;13.00;;
38111;SDS011;64011;56.312;44.048;2023-02-16T05:05:42;26.70;;;12.82;;
38111;SDS011;64011;56.312;44.048;2023-02-16T05:07:43;28.40;;;12.43;;
38111;SDS011;64011;56.312;44.048;2023-02-16T05:09:45;27.92;;;11.55;;
38111;SDS011;64011;56.312;44.048;2023-02-16T05:11:46;26.45;;;11.27;;
38111;SDS011;64011;56.312;44.048;2023-02-16T05:13:46;25.42;;;12.27;;
38111;SDS011;64011;56.312;44.048;2023-02-16T05:15:47;25.55;;;12.50;;
38111;SDS011;64011;56.312;44.048;2023-02-16T05:17:48;27.58;;;11.70;;
38111;SDS011;64011;56.312;44.048;2023-02-16T05:19:49;25.70;;;11.77;;
38111;SDS011;64011;56.312;44.048;2023-02-16T05:21:51;29.17;;;12.43;;
38111;SDS011;64011;56.312;44.048;2023-02-16T05:23:52;24.92;;;11.05;;
38111;SDS011;64011;56.312;44.048;2023-02-16T05:25:54;26.63;;;11.60;;
38111;SDS011;64011;56.312;44.048;2023-02-16T05:27:55;28.27;;;12.65;;
38111;SDS011;64011;56.312;44.048;2023-02-16T05:29:55;25.42;;;11.57;;
38111;SDS011;64011;56.312;44.048;2023-02-16T05:31:57;24.98;;;12.02;;
38111;SDS011;64011;56.312;44.048;2023-02-16T05:33:57;24.90;;;11.57;;
38111;SDS011;64011;56.312;44.048;2023-02-16T05:35:58;26.63;;;12.52;;
38111;SDS011;64011;56.312;44.048;2023-02-16T05:37:59;25.55;;;12.18;;
38111;SDS011;64011;56.312;44.048;2023-02-16T05:40:00;28.23;;;11.90;;
38111;SDS011;64011;56.312;44.048;2023-02-16T05:42:02;25.45;;;11.70;;
38111;SDS011;64011;56.312;44.048;2023-02-16T05:44:03;27.10;;;12.38;;
38111;SDS011;64011;56.312;44.048;2023-02-16T05:46:07;26.48;;;12.60;;
38111;SDS011;64011;56.312;44.048;2023-02-16T05:48:08;29.05;;;12.45;;
38111;SDS011;64011;56.312;44.048;2023-02-16T05:50:09;27.02;;;12.23;;
38111;SDS011;64011;56.312;44.048;2023-02-16T05:52:10;27.23;;;12.90;;
38111;SDS011;64011;56.312;44.048;2023-02-16T05:54:11;27.77;;;13.07;;
38111;SDS011;64011;56.312;44.048;2023-02-16T05:56:13;27.17;;;12.73;;
38111;SDS011;64011;56.312;44.048;2023-02-16T05:58:15;25.38;;;12.20;;
38111;SDS011;64011;56.312;44.048;2023-02-16T06:00:16;25.05;;;11.45;;
38111;SDS011;64011;56.312;44.048;2023-02-16T06:02:17;25.73;;;11.20;;
38111;SDS011;64011;56.312;44.048;2023-02-16T06:04:18;27.38;;;11.90;;
38111;SDS011;64011;56.312;44.048;2023-02-16T06:06:20;24.33;;;10.95;;
38111;SDS011;64011;56.312;44.048;2023-02-16T06:08:20;25.35;;;11.25;;
38111;SDS011;64011;56.312;44.048;2023-02-16T06:10:21;26.55;;;11.73;;
38111;SDS011;64011;56.312;44.048;2023-02-16T06:12:22;25.27;;;11.95;;
38111;SDS011;64011;56.312;44.048;2023-02-16T06:14:24;26.10;;;12.15;;
38111;SDS011;64011;56.312;44.048;2023-02-16T06:16:25;25.38;;;11.43;;
38111;SDS011;64011;56.312;44.048;2023-02-16T06:18:27;25.33;;;11.35;;
38111;SDS011;64011;56.312;44.048;2023-02-16T06:20:27;25.98;;;11.80;;
38111;SDS011;64011;56.312;44.048;2023-02-16T06:22:28;24.17;;;11.45;;
38111;SDS011;64011;56.312;44.048;2023-02-16T06:24:29;24.63;;;11.50;;
38111;SDS011;64011;56.312;44.048;2023-02-16T06:26:30;24.17;;;11.23;;
38111;SDS011;64011;56.312;44.048;2023-02-16T06:28:31;24.65;;;11.50;;
38111;SDS011;64011;56.312;44.048;2023-02-16T06:30:33;26.25;;;11.43;;
38111;SDS011;64011;56.312;44.048;2023-02-16T06:32:34;26.33;;;12.35;;
38111;SDS011;64011;56.312;44.048;2023-02-16T06:34:35;24.50;;;11.30;;
38111;SDS011;64011;56.312;44.048;2023-02-16T06:36:36;25.38;;;11.82;;
38111;SDS011;64011;56.312;44.048;2023-02-16T06:38:37;25.50;;;10.98;;
38111;SDS011;64011;56.312;44.048;2023-02-16T06:40:38;25.40;;;11.85;;
38111;SDS011;64011;56.312;44.048;2023-02-16T06:42:39;24.38;;;10.98;;
38111;SDS011;64011;56.312;44.048;2023-02-16T06:44:39;26.17;;;12.10;;
38111;SDS011;64011;56.312;44.048;2023-02-16T06:46:42;25.55;;;12.32;;
38111;SDS011;64011;56.312;44.048;2023-02-16T06:48:44;23.88;;;10.43;;
38111;SDS011;64011;56.312;44.048;2023-02-16T06:50:44;23.75;;;11.77;;
38111;SDS011;64011;56.312;44.048;2023-02-16T06:52:45;24.10;;;10.43;;
38111;SDS011;64011;56.312;44.048;2023-02-16T06:54:46;24.67;;;11.25;;
38111;SDS011;64011;56.312;44.048;2023-02-16T06:56:47;25.35;;;10.13;;
38111;SDS011;64011;56.312;44.048;2023-02-16T06:58:47;22.05;;;9.98;;
38111;SDS011;64011;56.312;44.048;2023-02-16T07:00:48;24.10;;;10.75;;
38111;SDS011;64011;56.312;44.048;2023-02-16T07:02:50;22.98;;;11.13;;
38111;SDS011;64011;56.312;44.048;2023-02-16T07:04:51;22.70;;;10.57;;
38111;SDS011;64011;56.312;44.048;2023-02-16T07:06:52;23.00;;;10.77;;
38111;SDS011;64011;56.312;44.048;2023-02-16T07:08:53;22.05;;;10.23;;
38111;SDS011;64011;56.312;44.048;2023-02-16T07:10:53;22.60;;;9.77;;
38111;SDS011;64011;56.312;44.048;2023-02-16T07:12:54;20.90;;;9.32;;
38111;SDS011;64011;56.312;44.048;2023-02-16T07:14:55;20.52;;;9.45;;
38111;SDS011;64011;56.312;44.048;2023-02-16T07:16:56;20.75;;;9.57;;
38111;SDS011;64011;56.312;44.048;2023-02-16T07:18:58;22.10;;;9.48;;
38111;SDS011;64011;56.312;44.048;2023-02-16T07:20:59;21.92;;;10.05;;
38111;SDS011;64011;56.312;44.048;2023-02-16T07:23:00;22.73;;;10.02;;
38111;SDS011;64011;56.312;44.048;2023-02-16T07:25:00;22.90;;;9.95;;
38111;SDS011;64011;56.312;44.048;2023-02-16T07:27:01;24.40;;;10.38;;
38111;SDS011;64011;56.312;44.048;2023-02-16T07:29:02;21.73;;;9.85;;
38111;SDS011;64011;56.312;44.048;2023-02-16T07:31:06;20.55;;;9.20;;
38111;SDS011;64011;56.312;44.048;2023-02-16T07:33:07;22.13;;;9.77;;
38111;SDS011;64011;56.312;44.048;2023-02-16T07:35:10;22.23;;;9.57;;
38111;SDS011;64011;56.312;44.048;2023-02-16T07:37:10;20.77;;;9.43;;
38111;SDS011;64011;56.312;44.048;2023-02-16T07:39:11;22.05;;;9.30;;
38111;SDS011;64011;56.312;44.048;2023-02-16T07:41:12;22.25;;;9.75;;
38111;SDS011;64011;56.312;44.048;2023-02-16T07:43:13;20.30;;;9.05;;
38111;SDS011;64011;56.312;44.048;2023-02-16T07:45:13;21.38;;;8.75;;
38111;SDS011;64011;56.312;44.048;2023-02-16T07:47:14;20.13;;;9.75;;
38111;SDS011;64011;56.312;44.048;2023-02-16T07:49:15;23.75;;;9.93;;
38111;SDS011;64011;56.312;44.048;2023-02-16T07:51:21;21.90;;;9.32;;
38111;SDS011;64011;56.312;44.048;2023-02-16T07:53:22;23.33;;;10.27;;
38111;SDS011;64011;56.312;44.048;2023-02-16T07:55:22;20.15;;;8.60;;
38111;SDS011;64011;56.312;44.048;2023-02-16T07:57:23;22.33;;;9.02;;
38111;SDS011;64011;56.312;44.048;2023-02-16T07:59:24;18.98;;;8.18;;
38111;SDS011;64011;56.312;44.048;2023-02-16T08:01:25;19.60;;;8.60;;
38111;SDS011;64011;56.312;44.048;2023-02-16T08:03:27;19.98;;;8.48;;
38111;SDS011;64011;56.312;44.048;2023-02-16T08:05:27;20.15;;;8.25;;
38111;SDS011;64011;56.312;44.048;2023-02-16T08:07:29;18.90;;;8.60;;
38111;SDS011;64011;56.312;44.048;2023-02-16T08:09:30;19.88;;;8.18;;
38111;SDS011;64011;56.312;44.048;2023-02-16T08:11:31;20.48;;;8.43;;
38111;SDS011;64011;56.312;44.048;2023-02-16T08:13:32;21.00;;;8.70;;
38111;SDS011;64011;56.312;44.048;2023-02-16T08:15:32;18.75;;;8.35;;
38111;SDS011;64011;56.312;44.048;2023-02-16T08:17:34;19.35;;;8.55;;
38111;SDS011;64011;56.312;44.048;2023-02-16T08:19:35;20.27;;;8.45;;
38111;SDS011;64011;56.312;44.048;2023-02-16T08:21:36;20.98;;;8.75;;
38111;SDS011;64011;56.312;44.048;2023-02-16T08:23:38;20.38;;;8.07;;
38111;SDS011;64011;56.312;44.048;2023-02-16T08:25:39;20.27;;;8.48;;
38111;SDS011;64011;56.312;44.048;2023-02-16T08:27:40;18.98;;;7.78;;
38111;SDS011;64011;56.312;44.048;2023-02-16T08:29:41;19.85;;;7.20;;
38111;SDS011;64011;56.312;44.048;2023-02-16T08:31:42;19.40;;;8.60;;
38111;SDS011;64011;56.312;44.048;2023-02-16T08:33:44;18.15;;;7.35;;
38111;SDS011;64011;56.312;44.048;2023-02-16T08:35:45;21.08;;;8.25;;
38111;SDS011;64011;56.312;44.048;2023-02-16T08:37:46;19.38;;;8.32;;
38111;SDS011;64011;56.312;44.048;2023-02-16T08:39:48;18.20;;;6.43;;
38111;SDS011;64011;56.312;44.048;2023-02-16T08:41:49;22.30;;;8.00;;
38111;SDS011;64011;56.312;44.048;2023-02-16T08:43:51;20.75;;;8.55;;
38111;SDS011;64011;56.312;44.048;2023-02-16T08:45:52;18.85;;;8.02;;
38111;SDS011;64011;56.312;44.048;2023-02-16T08:47:53;20.70;;;8.10;;
38111;SDS011;64011;56.312;44.048;2023-02-16T08:49:54;19.08;;;7.55;;
38111;SDS011;64011;56.312;44.048;2023-02-16T08:51:55;16.98;;;7.07;;
38111;SDS011;64011;56.312;44.048;2023-02-16T08:53:57;18.38;;;6.53;;
38111;SDS011;64011;56.312;44.048;2023-02-16T08:56:00;18.73;;;7.35;;
38111;SDS011;64011;56.312;44.048;2023-02-16T08:58:02;18.90;;;6.30;;
38111;SDS011;64011;56.312;44.048;2023-02-16T09:00:04;17.70;;;6.55;;
38111;SDS011;64011;56.312;44.048;2023-02-16T09:02:05;12.70;;;5.30;;
38111;SDS011;64011;56.312;44.048;2023-02-16T09:04:06;17.35;;;6.32;;
38111;SDS011;64011;56.312;44.048;2023-02-16T09:06:08;18.52;;;7.35;;
38111;SDS011;64011;56.312;44.048;2023-02-16T09:08:10;17.55;;;6.78;;
38111;SDS011;64011;56.312;44.048;2023-02-16T09:10:10;19.08;;;7.35;;
38111;SDS011;64011;56.312;44.048;2023-02-16T09:12:13;18.05;;;7.40;;
38111;SDS011;64011;56.312;44.048;2023-02-16T09:14:14;17.98;;;7.18;;
38111;SDS011;64011;56.312;44.048;2023-02-16T09:16:15;18.27;;;7.10;;
38111;SDS011;64011;56.312;44.048;2023-02-16T09:18:17;18.77;;;6.72;;
38111;SDS011;64011;56.312;44.048;2023-02-16T09:20:17;16.52;;;7.15;;
38111;SDS011;64011;56.312;44.048;2023-02-16T09:22:18;15.02;;;5.25;;
38111;SDS011;64011;56.312;44.048;2023-02-16T09:24:19;16.98;;;5.47;;
38111;SDS011;64011;56.312;44.048;2023-02-16T09:26:21;18.13;;;6.78;;
38111;SDS011;64011;56.312;44.048;2023-02-16T09:28:24;17.45;;;6.53;;
38111;SDS011;64011;56.312;44.048;2023-02-16T09:30:25;16.95;;;6.05;;
38111;SDS011;64011;56.312;44.048;2023-02-16T09:32:26;18.40;;;6.25;;
38111;SDS011;64011;56.312;44.048;2023-02-16T09:34:28;17.85;;;7.13;;
38111;SDS011;64011;56.312;44.048;2023-02-16T09:36:28;17.90;;;6.22;;
38111;SDS011;64011;56.312;44.048;2023-02-16T09:38:29;16.75;;;6.30;;
38111;SDS011;64011;56.312;44.048;2023-02-16T09:40:30;17.13;;;6.47;;
38111;SDS011;64011;56.312;44.048;2023-02-16T09:42:32;15.10;;;5.82;;
38111;SDS011;64011;56.312;44.048;2023-02-16T09:44:43;16.13;;;5.72;;
38111;SDS011;64011;56.312;44.048;2023-02-16T09:46:48;16.42;;;6.45;;
38111;SDS011;64011;56.312;44.048;2023-02-16T09:48:49;17.25;;;6.35;;
38111;SDS011;64011;56.312;44.048;2023-02-16T09:50:50;16.60;;;6.38;;
38111;SDS011;64011;56.312;44.048;2023-02-16T09:52:54;17.98;;;6.50;;
38111;SDS011;64011;56.312;44.048;2023-02-16T09:54:58;15.98;;;6.05;;
38111;SDS011;64011;56.312;44.048;2023-02-16T09:57:00;16.17;;;5.85;;
38111;SDS011;64011;56.312;44.048;2023-02-16T09:59:04;15.70;;;6.30;;
38111;SDS011;64011;56.312;44.048;2023-02-16T10:01:12;16.33;;;6.05;;
38111;SDS011;64011;56.312;44.048;2023-02-16T10:03:22;15.70;;;6.03;;
38111;SDS011;64011;56.312;44.048;2023-02-16T10:05:31;17.42;;;6.18;;
38111;SDS011;64011;56.312;44.048;2023-02-16T10:07:40;17.33;;;7.15;;
38111;SDS011;64011;56.312;44.048;2023-02-16T10:09:49;19.03;;;7.70;;
38111;SDS011;64011;56.312;44.048;2023-02-16T10:11:51;16.42;;;6.43;;
38111;SDS011;64011;56.312;44.048;2023-02-16T10:13:55;17.80;;;6.88;;
38111;SDS011;64011;56.312;44.048;2023-02-16T10:16:00;19.88;;;7.38;;
38111;SDS011;64011;56.312;44.048;2023-02-16T10:18:03;16.73;;;6.63;;
38111;SDS011;64011;56.312;44.048;2023-02-16T10:20:10;15.75;;;5.72;;
38111;SDS011;64011;56.312;44.048;2023-02-16T10:22:13;16.95;;;6.18;;
38111;SDS011;64011;56.312;44.048;2023-02-16T10:24:15;15.93;;;5.78;;
38111;SDS011;64011;56.312;44.048;2023-02-16T10:26:17;16.92;;;6.45;;
38111;SDS011;64011;56.312;44.048;2023-02-16T10:28:25;16.17;;;6.18;;
38111;SDS011;64011;56.312;44.048;2023-02-16T10:30:33;16.73;;;6.72;;
38111;SDS011;64011;56.312;44.048;2023-02-16T10:32:34;17.45;;;7.47;;
38111;SDS011;64011;56.312;44.048;2023-02-16T10:34:47;20.08;;;7.03;;
38111;SDS011;64011;56.312;44.048;2023-02-16T10:39:16;17.40;;;6.88;;
38111;SDS011;64011;56.312;44.048;2023-02-16T10:41:23;21.67;;;7.82;;
38111;SDS011;64011;56.312;44.048;2023-02-16T10:43:33;18.33;;;7.03;;
38111;SDS011;64011;56.312;44.048;2023-02-16T10:45:42;19.00;;;7.38;;
38111;SDS011;64011;56.312;44.048;2023-02-16T10:47:46;18.48;;;7.25;;
38111;SDS011;64011;56.312;44.048;2023-02-16T10:49:48;20.65;;;7.32;;
38111;SDS011;64011;56.312;44.048;2023-02-16T10:51:49;19.77;;;7.63;;
38111;SDS011;64011;56.312;44.048;2023-02-16T10:53:51;20.17;;;8.00;;
38111;SDS011;64011;56.312;44.048;2023-02-16T10:55:55;19.73;;;7.40;;
38111;SDS011;64011;56.312;44.048;2023-02-16T10:57:57;17.90;;;7.10;;
38111;SDS011;64011;56.312;44.048;2023-02-16T11:00:02;17.58;;;6.82;;
38111;SDS011;64011;56.312;44.048;2023-02-16T11:02:14;18.42;;;7.30;;
38111;SDS011;64011;56.312;44.048;2023-02-16T11:04:30;18.98;;;8.05;;
38111;SDS011;64011;56.312;44.048;2023-02-16T11:06:34;19.25;;;8.00;;
38111;SDS011;64011;56.312;44.048;2023-02-16T11:08:36;20.33;;;8.32;;
38111;SDS011;64011;56.312;44.048;2023-02-16T11:10:47;17.45;;;7.53;;
38111;SDS011;64011;56.312;44.048;2023-02-16T11:12:52;21.75;;;8.32;;
38111;SDS011;64011;56.312;44.048;2023-02-16T11:14:54;22.00;;;7.70;;
38111;SDS011;64011;56.312;44.048;2023-02-16T11:17:01;19.50;;;8.10;;
38111;SDS011;64011;56.312;44.048;2023-02-16T11:19:04;18.98;;;8.07;;
38111;SDS011;64011;56.312;44.048;2023-02-16T11:21:07;19.63;;;8.30;;
38111;SDS011;64011;56.312;44.048;2023-02-16T11:23:14;22.88;;;8.88;;
38111;SDS011;64011;56.312;44.048;2023-02-16T11:25:22;19.90;;;8.43;;
38111;SDS011;64011;56.312;44.048;2023-02-16T11:27:24;19.63;;;7.60;;
38111;SDS011;64011;56.312;44.048;2023-02-16T11:29:25;19.63;;;8.25;;
38111;SDS011;64011;56.312;44.048;2023-02-16T11:31:27;21.63;;;7.63;;
38111;SDS011;64011;56.312;44.048;2023-02-16T11:33:30;18.48;;;7.45;;
38111;SDS011;64011;56.312;44.048;2023-02-16T11:35:39;20.20;;;7.95;;
38111;SDS011;64011;56.312;44.048;2023-02-16T11:37:42;19.88;;;8.55;;
38111;SDS011;64011;56.312;44.048;2023-02-16T11:39:48;18.27;;;7.60;;
38111;SDS011;64011;56.312;44.048;2023-02-16T11:41:50;18.38;;;6.80;;
38111;SDS011;64011;56.312;44.048;2023-02-16T11:43:52;18.90;;;7.47;;
38111;SDS011;64011;56.312;44.048;2023-02-16T11:45:57;20.17;;;7.93;;
38111;SDS011;64011;56.312;44.048;2023-02-16T11:48:00;17.75;;;7.22;;
38111;SDS011;64011;56.312;44.048;2023-02-16T11:50:07;22.42;;;7.45;;
38111;SDS011;64011;56.312;44.048;2023-02-16T11:52:17;20.10;;;7.60;;
38111;SDS011;64011;56.312;44.048;2023-02-16T11:54:23;17.25;;;7.35;;
38111;SDS011;64011;56.312;44.048;2023-02-16T11:56:25;19.60;;;7.38;;
38111;SDS011;64011;56.312;44.048;2023-02-16T11:58:27;17.85;;;7.28;;
38111;SDS011;64011;56.312;44.048;2023-02-16T12:00:27;17.52;;;7.38;;